createdAt,value
2022-12-08T00:01:33.425Z,98889.28
2022-12-08T00:04:02.570Z,98892.78
2022-12-08T00:06:56.547Z,98882.75
2022-12-08T00:09:26.918Z,98889.09
2022-12-08T00:12:07.721Z,98890.00
2022-12-08T00:14:46.101Z,98887.53
2022-12-08T00:17:15.874Z,98882.97
2022-12-08T00:19:44.036Z,98873.44
2022-12-08T00:22:12.848Z,98882.72
2022-12-08T00:24:45.604Z,98883.44
2022-12-08T00:27:15.227Z,98877.47
2022-12-08T00:29:46.140Z,98881.25
2022-12-08T00:32:13.698Z,98878.63
2022-12-08T00:34:42.655Z,98879.66
2022-12-08T00:37:10.122Z,98879.47
2022-12-08T00:39:37.683Z,98884.84
2022-12-08T00:42:14.419Z,98896.00
2022-12-08T00:44:44.294Z,98890.28
2022-12-08T00:47:13.236Z,98891.41
2022-12-08T00:49:40.817Z,98897.13
2022-12-08T00:52:08.562Z,98896.06
2022-12-08T00:54:36.385Z,98893.16
2022-12-08T00:57:04.067Z,98902.75
2022-12-08T00:59:31.614Z,98903.22
2022-12-08T01:01:59.151Z,98901.59
2022-12-08T01:04:26.675Z,98902.44
2022-12-08T01:06:54.124Z,98904.69
2022-12-08T01:09:21.696Z,98892.38
2022-12-08T01:11:50.585Z,98899.59
2022-12-08T01:14:18.142Z,98902.44
2022-12-08T01:16:45.821Z,98899.00
2022-12-08T01:19:15.587Z,98897.50
2022-12-08T01:21:45.031Z,98894.00
2022-12-08T01:24:20.474Z,98885.78
2022-12-08T01:26:49.524Z,98896.28
2022-12-08T01:29:18.013Z,98901.13
2022-12-08T01:31:45.535Z,98896.81
2022-12-08T01:34:13.197Z,98898.56
2022-12-08T01:36:42.188Z,98890.97
2022-12-08T01:39:15.406Z,98887.16
2022-12-08T01:41:43.868Z,98889.19
2022-12-08T01:44:11.348Z,98888.22
2022-12-08T01:46:40.798Z,98888.94
2022-12-08T01:49:13.609Z,98888.25
2022-12-08T01:51:56.405Z,98878.09
2022-12-08T01:54:28.798Z,98884.41
2022-12-08T01:57:03.560Z,98879.56
2022-12-08T01:59:36.243Z,98876.22
2022-12-08T02:02:03.982Z,98884.31
2022-12-08T02:04:31.522Z,98877.69
2022-12-08T02:07:02.506Z,98869.00
2022-12-08T02:09:34.067Z,98869.41
2022-12-08T02:12:01.576Z,98865.25
2022-12-08T02:14:29.152Z,98863.81
2022-12-08T02:17:17.784Z,98860.19
2022-12-08T02:20:22.427Z,98851.28
2022-12-08T02:23:08.812Z,98851.31
2022-12-08T02:26:05.288Z,98861.78
2022-12-08T02:28:44.527Z,98856.88
2022-12-08T02:31:46.253Z,98857.06
2022-12-08T02:34:36.478Z,98852.44
2022-12-08T02:37:17.301Z,98852.09
2022-12-08T02:39:56.820Z,98844.03
2022-12-08T02:42:35.184Z,98844.13
2022-12-08T02:45:14.745Z,98845.50
2022-12-08T02:47:43.433Z,98843.59
2022-12-08T02:50:12.201Z,98849.22
2022-12-08T02:52:47.802Z,98843.00
2022-12-08T02:55:23.037Z,98839.72
2022-12-08T02:58:02.441Z,98841.16
2022-12-08T03:00:41.314Z,98842.38
2022-12-08T03:03:19.318Z,98834.59
2022-12-08T03:06:32.914Z,98836.13
2022-12-08T03:09:08.671Z,98831.69
2022-12-08T03:12:01.146Z,98831.94
2022-12-08T03:14:30.867Z,98828.66
2022-12-08T03:17:00.121Z,98834.09
2022-12-08T03:19:32.999Z,98829.91
2022-12-08T03:22:03.510Z,98827.88
2022-12-08T03:24:34.997Z,98831.72
2022-12-08T03:27:04.332Z,98836.22
2022-12-08T03:29:33.080Z,98829.03
2022-12-08T03:32:22.759Z,98823.28
2022-12-08T03:34:51.628Z,98827.03
2022-12-08T03:37:20.190Z,98829.13
2022-12-08T03:39:48.352Z,98833.06
2022-12-08T03:42:15.823Z,98824.81
2022-12-08T03:44:43.314Z,98820.56
2022-12-08T03:47:10.772Z,98823.94
2022-12-08T03:49:38.536Z,98822.53
2022-12-08T03:52:06.013Z,98827.03
2022-12-08T03:54:33.578Z,98820.69
2022-12-08T03:57:01.087Z,98811.97
2022-12-08T03:59:28.799Z,98809.53
2022-12-08T04:01:56.347Z,98818.47
2022-12-08T04:04:24.034Z,98808.47
2022-12-08T04:06:51.540Z,98814.09
2022-12-08T04:09:19.178Z,98803.28
2022-12-08T04:11:46.686Z,98807.88
2022-12-08T04:14:14.296Z,98808.31
2022-12-08T04:16:41.979Z,98794.19
2022-12-08T04:19:09.535Z,98787.44
2022-12-08T04:21:37.077Z,98785.72
2022-12-08T04:24:04.731Z,98784.16
2022-12-08T04:26:32.271Z,98783.09
2022-12-08T04:28:59.715Z,98782.13
2022-12-08T04:31:27.353Z,98788.41
2022-12-08T04:33:54.902Z,98788.13
2022-12-08T04:36:22.476Z,98781.13
2022-12-08T04:38:50.053Z,98786.13
2022-12-08T04:41:17.556Z,98795.13
2022-12-08T04:43:45.068Z,98790.78
2022-12-08T04:46:12.886Z,98785.34
2022-12-08T04:48:41.371Z,98783.53
2022-12-08T04:51:17.101Z,98783.66
2022-12-08T04:53:46.855Z,98788.00
2022-12-08T04:56:19.180Z,98787.69
2022-12-08T04:58:46.746Z,98793.59
2022-12-08T05:01:14.832Z,98788.31
2022-12-08T05:03:42.425Z,98797.13
2022-12-08T05:06:12.675Z,98792.28
2022-12-08T05:08:41.491Z,98793.91
2022-12-08T05:11:10.636Z,98786.16
2022-12-08T05:13:38.178Z,98795.13
2022-12-08T05:16:10.753Z,98796.56
2022-12-08T05:18:39.990Z,98799.59
2022-12-08T05:21:08.485Z,98802.53
2022-12-08T05:23:36.287Z,98796.19
2022-12-08T05:26:04.119Z,98799.81
2022-12-08T05:28:46.868Z,98801.97
2022-12-08T05:31:15.665Z,98787.28
2022-12-08T05:33:44.800Z,98786.97
2022-12-08T05:36:14.481Z,98787.97
2022-12-08T05:38:42.975Z,98780.41
2022-12-08T05:41:15.054Z,98775.69
2022-12-08T05:43:42.523Z,98773.09
2022-12-08T05:46:10.432Z,98772.06
2022-12-08T05:48:38.315Z,98770.59
2022-12-08T05:51:09.499Z,98774.34
2022-12-08T05:53:36.898Z,98775.88
2022-12-08T05:56:04.692Z,98771.03
2022-12-08T05:58:32.271Z,98768.34
2022-12-08T06:00:59.713Z,98761.72
2022-12-08T06:03:27.235Z,98769.69
2022-12-08T06:05:54.948Z,98782.72
2022-12-08T06:08:22.548Z,98776.47
2022-12-08T06:10:50.164Z,98780.06
2022-12-08T06:13:17.695Z,98776.69
2022-12-08T06:15:45.256Z,98788.44
2022-12-08T06:18:13.366Z,98783.19
2022-12-08T06:20:41.006Z,98782.88
2022-12-08T06:23:08.486Z,98785.19
2022-12-08T06:25:36.171Z,98789.00
2022-12-08T06:28:06.148Z,98790.03
2022-12-08T06:30:33.906Z,98796.03
2022-12-08T06:33:01.396Z,98795.00
2022-12-08T06:35:28.844Z,98796.22
2022-12-08T06:37:56.435Z,98793.28
2022-12-08T06:40:24.042Z,98795.13
2022-12-08T06:42:51.466Z,98799.53
2022-12-08T06:45:19.011Z,98794.41
2022-12-08T06:47:46.509Z,98801.69
2022-12-08T06:50:14.861Z,98792.97
2022-12-08T06:52:54.189Z,98802.41
2022-12-08T06:55:50.831Z,98803.09
2022-12-08T06:58:11.844Z,98810.44
2022-12-08T07:00:40.488Z,98804.88
2022-12-08T07:03:09.355Z,98807.81
2022-12-08T07:05:38.262Z,98800.34
2022-12-08T07:08:08.304Z,98800.63
2022-12-08T07:10:36.301Z,98787.47
2022-12-08T07:13:05.775Z,98792.53
2022-12-08T07:15:33.799Z,98801.38
2022-12-08T07:18:01.285Z,98796.53
2022-12-08T07:20:28.929Z,98798.44
2022-12-08T07:22:56.425Z,98798.06
2022-12-08T07:25:24.142Z,98795.59
2022-12-08T07:27:52.691Z,98789.22
2022-12-08T07:30:20.601Z,98790.28
2022-12-08T07:32:48.049Z,98795.47
2022-12-08T07:35:15.628Z,98790.88
2022-12-08T07:37:43.113Z,98785.44
2022-12-08T07:40:11.362Z,98782.25
2022-12-08T07:42:38.776Z,98785.44
2022-12-08T07:45:07.650Z,98783.63
2022-12-08T07:47:35.172Z,98787.13
2022-12-08T07:50:03.004Z,98777.06
2022-12-08T07:52:31.028Z,98778.00
2022-12-08T07:54:58.537Z,98782.50
2022-12-08T07:57:25.996Z,98781.03
2022-12-08T07:59:53.452Z,98769.63
2022-12-08T08:02:24.996Z,98776.72
2022-12-08T08:04:54.323Z,98777.59
2022-12-08T08:07:21.858Z,98782.53
2022-12-08T08:09:49.444Z,98790.94
2022-12-08T08:12:32.904Z,98786.81
2022-12-08T08:15:01.877Z,98783.72
2022-12-08T08:17:30.152Z,98791.16
2022-12-08T08:19:57.817Z,98784.16
2022-12-08T08:22:28.589Z,98790.34
2022-12-08T08:24:55.985Z,98789.81
2022-12-08T08:27:23.484Z,98779.91
2022-12-08T08:29:51.757Z,98780.69
2022-12-08T08:32:19.783Z,98768.59
2022-12-08T08:34:47.187Z,98777.56
2022-12-08T08:37:14.864Z,98774.53
2022-12-08T08:39:43.138Z,98775.50
2022-12-08T08:42:10.622Z,98774.66
2022-12-08T08:44:39.009Z,98774.13
2022-12-08T08:47:06.615Z,98775.53
2022-12-08T08:49:34.153Z,98771.19
2022-12-08T08:52:04.740Z,98763.00
2022-12-08T08:54:33.129Z,98760.28
2022-12-08T08:57:01.529Z,98760.41
2022-12-08T08:59:29.104Z,98772.03
2022-12-08T09:01:56.767Z,98776.09
2022-12-08T09:04:25.686Z,98771.88
2022-12-08T09:06:53.298Z,98763.84
2022-12-08T09:09:20.959Z,98759.63
2022-12-08T09:11:48.706Z,98762.13
2022-12-08T09:14:16.227Z,98768.44
2022-12-08T09:16:44.127Z,98763.06
2022-12-08T09:19:11.582Z,98765.13
2022-12-08T09:21:40.186Z,98760.22
2022-12-08T09:24:10.543Z,98766.78
2022-12-08T09:26:38.053Z,98760.66
2022-12-08T09:29:05.607Z,98757.22
2022-12-08T09:31:33.383Z,98754.94
2022-12-08T09:34:00.957Z,98753.91
2022-12-08T09:36:28.514Z,98748.31
2022-12-08T09:38:56.237Z,98743.59
2022-12-08T09:41:35.917Z,98733.94
2022-12-08T09:44:38.902Z,98717.97
2022-12-08T09:47:16.242Z,98713.09
2022-12-08T09:49:50.616Z,98710.13
2022-12-08T09:52:26.600Z,98703.91
2022-12-08T09:54:58.873Z,98729.44
2022-12-08T09:57:26.974Z,98716.59
2022-12-08T10:00:01.209Z,98715.47
2022-12-08T10:02:30.493Z,98727.84
2022-12-08T10:04:59.319Z,98733.69
2022-12-08T10:07:43.724Z,98736.97
2022-12-08T10:10:39.667Z,98728.78
2022-12-08T10:13:36.559Z,98722.00
2022-12-08T10:16:04.129Z,98726.50
2022-12-08T10:18:34.049Z,98720.28
2022-12-08T10:21:18.819Z,98710.97
2022-12-08T10:23:49.991Z,98706.13
2022-12-08T10:26:20.128Z,98706.69
2022-12-08T10:28:48.766Z,98699.41
2022-12-08T10:31:24.829Z,98691.81
2022-12-08T10:34:14.208Z,98688.56
2022-12-08T10:37:00.787Z,98683.84
2022-12-08T10:39:40.106Z,98676.19
2022-12-08T10:42:15.626Z,98669.41
2022-12-08T10:45:04.288Z,98659.31
2022-12-08T10:47:37.750Z,98666.78
2022-12-08T10:50:10.478Z,98658.44
2022-12-08T10:52:40.283Z,98662.97
2022-12-08T10:55:19.734Z,98650.13
2022-12-08T10:57:50.860Z,98643.44
2022-12-08T11:00:22.034Z,98639.13
2022-12-08T11:02:55.847Z,98628.31
2022-12-08T11:05:28.076Z,98632.94
2022-12-08T11:07:56.724Z,98626.50
2022-12-08T11:10:36.927Z,98626.00
2022-12-08T11:13:07.340Z,98621.88
2022-12-08T11:15:39.483Z,98611.78
2022-12-08T11:18:10.484Z,98606.34
2022-12-08T11:20:41.807Z,98597.41
2022-12-08T11:23:21.193Z,98592.16
2022-12-08T11:25:50.627Z,98578.50
2022-12-08T11:28:25.424Z,98573.56
2022-12-08T11:31:16.354Z,98576.38
2022-12-08T11:33:45.690Z,98576.72
2022-12-08T11:36:15.630Z,98567.69
2022-12-08T11:38:50.554Z,98554.75
2022-12-08T11:41:53.584Z,98560.47
2022-12-08T11:44:39.127Z,98559.16
2022-12-08T11:47:40.646Z,98544.88
2022-12-08T11:50:25.685Z,98547.00
2022-12-08T11:52:53.170Z,98542.94
2022-12-08T11:55:26.741Z,98546.72
2022-12-08T11:57:57.192Z,98543.13
2022-12-08T12:00:24.769Z,98549.00
2022-12-08T12:03:04.653Z,98552.78
2022-12-08T12:06:13.225Z,98554.09
2022-12-08T12:09:08.946Z,98552.13
2022-12-08T12:12:15.911Z,98541.97
2022-12-08T12:15:11.443Z,98550.78
2022-12-08T12:17:45.054Z,98549.56
2022-12-08T12:20:29.649Z,98547.97
2022-12-08T12:23:18.259Z,98542.72
2022-12-08T12:25:59.263Z,98545.81
2022-12-08T12:28:31.645Z,98548.34
2022-12-08T12:31:12.230Z,98547.53
2022-12-08T12:33:39.827Z,98549.25
2022-12-08T12:36:10.055Z,98550.00
2022-12-08T12:39:01.526Z,98550.59
2022-12-08T12:41:34.514Z,98548.69
2022-12-08T12:44:13.935Z,98548.84
2022-12-08T12:46:41.431Z,98546.66
2022-12-08T12:49:43.549Z,98535.06
2022-12-08T12:52:17.008Z,98540.63
2022-12-08T12:54:50.433Z,98540.47
2022-12-08T12:57:20.689Z,98537.44
2022-12-08T12:59:55.239Z,98527.81
2022-12-08T13:02:28.938Z,98528.16
2022-12-08T13:05:07.237Z,98530.63
2022-12-08T13:07:43.691Z,98522.16
2022-12-08T13:10:19.777Z,98521.22
2022-12-08T13:13:21.795Z,98513.28
2022-12-08T13:15:56.903Z,98506.84
2022-12-08T13:18:36.350Z,98509.97
2022-12-08T13:21:05.785Z,98503.25
2022-12-08T13:23:48.647Z,98505.53
2022-12-08T13:26:24.772Z,98508.03
2022-12-08T13:29:04.160Z,98510.97
2022-12-08T13:31:51.621Z,98508.31
2022-12-08T13:34:42.283Z,98499.38
2022-12-08T13:37:13.462Z,98503.31
2022-12-08T13:39:43.438Z,98508.78
2022-12-08T13:42:19.561Z,98511.16
2022-12-08T13:48:23.289Z,98500.69
2022-12-08T13:55:12.954Z,98502.00
2022-12-08T13:57:26.875Z,98507.41
2022-12-08T13:59:54.438Z,98506.31
2022-12-08T14:02:29.875Z,98504.06
2022-12-08T14:07:47.396Z,98507.28
2022-12-08T14:10:23.278Z,98500.69
2022-12-08T14:13:03.144Z,98502.63
2022-12-08T14:15:38.157Z,98509.88
2022-12-08T14:18:21.301Z,98512.13
2022-12-08T14:23:51.183Z,98517.00
2022-12-08T14:26:18.642Z,98525.97
2022-12-08T14:28:46.484Z,98530.88
2022-12-08T14:31:14.622Z,98535.00
2022-12-08T14:33:42.999Z,98536.41
2022-12-08T14:36:12.626Z,98513.47
2022-12-08T14:38:40.170Z,98523.50
2022-12-08T14:41:11.526Z,98513.78
2022-12-08T14:43:40.944Z,98512.19
2022-12-08T14:46:23.113Z,98513.28
2022-12-08T14:48:51.108Z,98509.97
2022-12-08T14:51:21.486Z,98506.63
2022-12-08T14:54:00.120Z,98499.19
2022-12-08T14:56:50.366Z,98498.69
2022-12-08T14:59:20.824Z,98492.06
2022-12-08T15:01:51.450Z,98500.28
2022-12-08T15:04:23.489Z,98493.72
2022-12-08T15:06:58.525Z,98493.25
2022-12-08T15:09:34.896Z,98487.56
2022-12-08T15:12:15.777Z,98485.22
2022-12-08T15:15:04.559Z,98483.31
2022-12-08T15:17:40.587Z,98482.69
2022-12-08T15:20:55.543Z,98484.97
2022-12-08T15:23:25.602Z,98486.81
2022-12-08T15:25:54.538Z,98488.97
2022-12-08T15:28:29.658Z,98492.09
2022-12-08T15:30:58.334Z,98490.13
2022-12-08T15:33:26.565Z,98487.50
2022-12-08T15:35:54.183Z,98486.63
2022-12-08T15:38:27.121Z,98477.25
2022-12-08T15:40:56.434Z,98478.16
2022-12-08T15:43:24.003Z,98475.50
2022-12-08T15:45:59.138Z,98474.13
2022-12-08T15:48:30.401Z,98469.47
2022-12-08T15:50:58.670Z,98470.88
2022-12-08T15:53:26.160Z,98468.38
2022-12-08T15:56:25.929Z,98466.34
2022-12-08T15:58:57.944Z,98466.63
2022-12-08T16:01:26.778Z,98474.47
2022-12-08T16:04:36.891Z,98469.28
2022-12-08T16:09:40.725Z,98473.59
2022-12-08T16:13:26.869Z,98475.34
2022-12-08T16:15:50.101Z,98485.25
2022-12-08T16:18:26.812Z,98486.25
2022-12-08T16:23:45.003Z,98481.69
2022-12-08T16:26:28.566Z,98483.59
2022-12-08T16:29:04.104Z,98479.84
2022-12-08T16:31:33.715Z,98475.06
2022-12-08T16:34:01.419Z,98487.03
2022-12-08T16:36:28.940Z,98477.31
2022-12-08T16:38:56.481Z,98475.66
2022-12-08T16:41:42.390Z,98478.88
2022-12-08T16:44:10.365Z,98485.66
2022-12-08T16:46:37.808Z,98484.22
2022-12-08T16:49:08.565Z,98476.53
2022-12-08T16:51:36.120Z,98481.72
2022-12-08T16:54:03.632Z,98473.81
2022-12-08T16:56:33.498Z,98475.88
2022-12-08T16:59:02.316Z,98477.59
2022-12-08T17:01:30.487Z,98483.25
2022-12-08T17:04:29.686Z,98473.97
2022-12-08T17:06:46.430Z,98468.56
2022-12-08T17:09:14.092Z,98462.94
2022-12-08T17:11:43.552Z,98463.03
2022-12-08T17:14:13.296Z,98469.47
2022-12-08T17:16:42.292Z,98472.16
2022-12-08T17:19:12.189Z,98473.38
2022-12-08T17:21:39.673Z,98470.16
2022-12-08T17:24:07.325Z,98481.28
2022-12-08T17:26:35.404Z,98472.09
2022-12-08T17:29:04.495Z,98473.47
2022-12-08T17:31:33.091Z,98470.00
2022-12-08T17:34:02.934Z,98459.91
2022-12-08T17:36:30.445Z,98461.00
2022-12-08T17:38:59.706Z,98455.69
2022-12-08T17:41:27.658Z,98460.75
2022-12-08T17:43:55.691Z,98455.38
2022-12-08T17:46:24.341Z,98449.59
2022-12-08T17:48:52.262Z,98452.09
2022-12-08T17:51:19.988Z,98442.41
2022-12-08T17:53:47.834Z,98446.50
2022-12-08T17:56:19.075Z,98452.06
2022-12-08T17:58:52.644Z,98457.69
2022-12-08T18:01:23.496Z,98456.09
2022-12-08T18:03:51.717Z,98460.59
2022-12-08T18:06:19.616Z,98465.19
2022-12-08T18:08:47.686Z,98457.22
2022-12-08T18:11:20.632Z,98448.47
2022-12-08T18:13:49.970Z,98457.47
2022-12-08T18:16:19.753Z,98459.47
2022-12-08T18:18:47.672Z,98469.19
2022-12-08T18:21:22.855Z,98468.44
2022-12-08T18:23:51.251Z,98475.16
2022-12-08T18:26:19.052Z,98475.28
2022-12-08T18:28:48.328Z,98473.66
2022-12-08T18:31:19.521Z,98477.53
2022-12-08T18:33:48.478Z,98466.50
2022-12-08T18:36:19.132Z,98471.22
2022-12-08T18:38:50.503Z,98459.72
2022-12-08T18:41:23.332Z,98464.59
2022-12-08T18:43:51.644Z,98460.66
2022-12-08T18:46:19.442Z,98466.41
2022-12-08T18:48:48.850Z,98458.53
2022-12-08T18:51:21.575Z,98460.13
2022-12-08T18:53:51.880Z,98452.94
2022-12-08T18:56:22.164Z,98461.88
2022-12-08T18:58:49.772Z,98465.81
2022-12-08T19:01:17.872Z,98471.16
2022-12-08T19:04:04.747Z,98466.03
2022-12-08T19:06:33.400Z,98460.38
2022-12-08T19:09:03.249Z,98455.38
2022-12-08T19:11:30.813Z,98452.50
2022-12-08T19:13:58.477Z,98446.75
2022-12-08T19:16:26.352Z,98452.66
2022-12-08T19:18:54.039Z,98464.09
2022-12-08T19:21:23.950Z,98461.75
2022-12-08T19:23:52.685Z,98468.34
2022-12-08T19:26:20.163Z,98467.91
2022-12-08T19:28:48.159Z,98473.09
2022-12-08T19:31:16.438Z,98471.34
2022-12-08T19:33:44.367Z,98474.56
2022-12-08T19:36:16.857Z,98476.19
2022-12-08T19:39:03.219Z,98475.63
2022-12-08T19:41:50.468Z,98471.81
2022-12-08T19:44:45.521Z,98466.38
2022-12-08T19:47:13.475Z,98465.75
2022-12-08T19:49:41.414Z,98453.00
2022-12-08T19:52:09.691Z,98450.81
2022-12-08T19:54:38.208Z,98457.38
2022-12-08T19:57:06.036Z,98458.91
2022-12-08T19:59:34.008Z,98458.44
2022-12-08T20:02:02.025Z,98449.13
2022-12-08T20:04:29.578Z,98452.97
2022-12-08T20:06:57.719Z,98439.97
2022-12-08T20:09:25.828Z,98442.47
2022-12-08T20:11:54.787Z,98439.97
2022-12-08T20:14:23.321Z,98433.00
2022-12-08T20:16:51.363Z,98433.63
2022-12-08T20:19:20.335Z,98441.31
2022-12-08T20:21:48.838Z,98437.94
2022-12-08T20:24:17.165Z,98433.75
2022-12-08T20:26:44.956Z,98429.13
2022-12-08T20:29:14.787Z,98434.75
2022-12-08T20:31:43.265Z,98438.41
2022-12-08T20:34:18.856Z,98444.28
2022-12-08T20:36:49.437Z,98447.22
2022-12-08T20:39:18.729Z,98448.19
2022-12-08T20:41:47.945Z,98444.19
2022-12-08T20:44:15.701Z,98447.56
2022-12-08T20:46:49.081Z,98453.44
2022-12-08T20:49:18.177Z,98453.78
2022-12-08T20:51:46.615Z,98460.47
2022-12-08T20:54:14.190Z,98461.56
2022-12-08T20:56:46.592Z,98464.59
2022-12-08T20:59:18.170Z,98462.66
2022-12-08T21:01:46.280Z,98464.47
2022-12-08T21:04:14.278Z,98466.94
2022-12-08T21:06:42.173Z,98465.78
2022-12-08T21:09:10.580Z,98463.53
2022-12-08T21:11:38.784Z,98461.81
2022-12-08T21:14:06.849Z,98455.84
2022-12-08T21:16:34.689Z,98465.41
2022-12-08T21:19:02.404Z,98469.88
2022-12-08T21:21:30.070Z,98459.94
2022-12-08T21:23:57.954Z,98448.75
2022-12-08T21:26:26.415Z,98441.28
2022-12-08T21:28:58.504Z,98451.63
2022-12-08T21:31:29.377Z,98445.88
2022-12-08T21:33:58.249Z,98433.75
2022-12-08T21:36:25.712Z,98437.78
2022-12-08T21:39:00.694Z,98438.97
2022-12-08T21:41:48.313Z,98438.84
2022-12-08T21:44:20.141Z,98443.09
2022-12-08T21:46:47.910Z,98448.28
2022-12-08T21:49:16.370Z,98445.25
2022-12-08T21:51:44.104Z,98441.69
2022-12-08T21:54:18.363Z,98437.25
2022-12-08T21:56:47.723Z,98436.53
2022-12-08T21:59:16.399Z,98446.72
2022-12-08T22:01:44.510Z,98449.56
2022-12-08T22:04:15.955Z,98446.53
2022-12-08T22:06:43.584Z,98439.25
2022-12-08T22:09:13.482Z,98439.41
2022-12-08T22:11:43.195Z,98454.75
2022-12-08T22:14:14.814Z,98445.53
2022-12-08T22:16:43.983Z,98439.44
2022-12-08T22:19:12.647Z,98436.38
2022-12-08T22:21:41.703Z,98432.44
2022-12-08T22:24:09.508Z,98442.94
2022-12-08T22:26:37.114Z,98443.22
2022-12-08T22:29:04.835Z,98449.06
2022-12-08T22:31:32.915Z,98447.16
2022-12-08T22:34:00.474Z,98449.66
2022-12-08T22:36:28.269Z,98452.94
2022-12-08T22:38:56.001Z,98444.25
2022-12-08T22:41:23.844Z,98439.31
2022-12-08T22:43:51.421Z,98438.25
2022-12-08T22:46:24.959Z,98440.47
2022-12-08T22:48:54.502Z,98449.13
2022-12-08T22:51:22.128Z,98445.59
2022-12-08T22:53:50.383Z,98448.22
2022-12-08T22:56:19.307Z,98448.56
2022-12-08T22:58:47.304Z,98447.06
2022-12-08T23:01:29.580Z,98440.03
2022-12-08T23:03:58.406Z,98441.13
2022-12-08T23:06:30.314Z,98439.47
2022-12-08T23:08:59.212Z,98438.59
2022-12-08T23:11:29.712Z,98449.38
2022-12-08T23:14:01.056Z,98447.94
2022-12-08T23:16:29.034Z,98443.91
2022-12-08T23:18:56.999Z,98446.19
2022-12-08T23:21:24.466Z,98453.63
2022-12-08T23:23:52.024Z,98446.19
2022-12-08T23:26:27.087Z,98441.69
2022-12-08T23:28:56.839Z,98436.31
2022-12-08T23:31:25.552Z,98437.19
2022-12-08T23:33:53.451Z,98446.03
2022-12-08T23:36:23.087Z,98443.84
2022-12-08T23:38:50.573Z,98448.25
2022-12-08T23:41:18.021Z,98439.59
2022-12-08T23:43:47.385Z,98435.38
2022-12-08T23:46:16.119Z,98424.47
2022-12-08T23:48:44.328Z,98424.16
2022-12-08T23:51:12.622Z,98436.97
2022-12-08T23:53:40.712Z,98422.22
2022-12-08T23:56:11.171Z,98420.84
2022-12-08T23:58:39.515Z,98422.53
